Tuxedo, New York
Current Conditions -  °F | °C
As of 11:02 AM on Thursday 27 Nov 2014 (Local Time) from KFWN Reporting Station
Light Snow Light Snow  
Wind Chill: 33°   Ceiling: 3500
Heat Index: 33°   Visibility: 5mi
Dew Point: 29°   Wind: 0mph
Humidity: 85%   Direction: NA
Pressure: 30"   Gusts: NA
Location:  41.1969°N, 74.224°W
Report Text: KFWN 271602Z AUTO 00000KT 5SM -SN BR FEW014 BKN035 OVC042 01/M02 A3000 RMK AO2 P0000 T00061017
Loading
Personal Weather Stations






























Interactive Weather Map New forecast layout! Learn more

10-Day Weather Forecast

Advertisements
Track Severe Weather on mobile